Impacts TAF Board INFO
FOR SITUATIONAL AWARENESS. NOT TO BE USED FOR FLIGHT PLANNING PURPOSES.
IDs:

KMDW - Chicago/Midway Intl, IL, US

Issued at 0304 UTC 18 Dec 2017
Updated at 0508 UTC 18 Dec 2017
Potential Impact None Slight Moderate High
Time<<19/06Z 19/07Z 19/08Z 19/09Z 19/10Z 19/11Z 19/12Z 19/13Z 19/14Z 19/15Z 19/16Z 19/17Z 19/18Z
Type
VIS
CIG
Cover
FltCat
WX
WDir
WSpd
WGst

Raw TAF
KMDW 180304Z 1803/1906 23004KT P6SM SCT025 OVC035
  FM180600 24005KT 6SM BR BKN010
  FM180800 24007KT 3SM -DZ BR OVC007
  TEMPO 1810/1814 1SM -DZ BR
  FM181600 24012KT P6SM BKN015
  FM182000 24010KT P6SM SCT035
  FM190000 22012KT P6SM SKC WS020/27045KT


METAR Board
Radar Display
Forecast Discussion

FOR SITUATIONAL AWARENESS. NOT TO BE USED FOR FLIGHT PLANNING PURPOSES.